createdAt,value
2023-01-19T00:00:18.229Z,99668.38
2023-01-19T00:02:47.490Z,99673.56
2023-01-19T00:05:14.800Z,99678.78
2023-01-19T00:07:41.961Z,99683.03
2023-01-19T00:10:09.701Z,99683.94
2023-01-19T00:12:36.214Z,99689.09
2023-01-19T00:15:02.700Z,99689.97
2023-01-19T00:17:29.181Z,99694.25
2023-01-19T00:19:55.742Z,99696.75
2023-01-19T00:22:22.430Z,99701.03
2023-01-19T00:24:49.179Z,99704.41
2023-01-19T00:27:15.724Z,99705.19
2023-01-19T00:29:42.242Z,99709.50
2023-01-19T00:32:08.655Z,99712.16
2023-01-19T00:34:39.621Z,99716.38
2023-01-19T00:37:07.170Z,99718.16
2023-01-19T00:39:33.667Z,99713.06
2023-01-19T00:42:18.731Z,99721.59
2023-01-19T00:44:45.280Z,99711.38
2023-01-19T00:47:11.704Z,99708.84
2023-01-19T00:49:40.959Z,99713.13
2023-01-19T00:52:07.415Z,99713.13
2023-01-19T00:54:33.913Z,99715.75
2023-01-19T00:57:00.389Z,99723.53
2023-01-19T00:59:26.907Z,99723.63
2023-01-19T01:01:53.662Z,99724.53
2023-01-19T01:04:20.277Z,99736.53
2023-01-19T01:06:46.933Z,99731.44
2023-01-19T01:09:13.454Z,99717.16
2023-01-19T01:11:43.445Z,99718.97
2023-01-19T01:14:11.117Z,99721.56
2023-01-19T01:16:37.743Z,99724.13
2023-01-19T01:19:04.285Z,99718.97
2023-01-19T01:21:30.861Z,99721.56
2023-01-19T01:23:57.314Z,99725.91
2023-01-19T01:26:24.680Z,99722.50
2023-01-19T01:28:51.954Z,99727.59
2023-01-19T01:31:18.438Z,99725.81
2023-01-19T01:33:44.949Z,99733.59
2023-01-19T01:36:12.078Z,99734.38
2023-01-19T01:38:39.728Z,99736.19
2023-01-19T01:41:06.246Z,99736.38
2023-01-19T01:43:44.954Z,99731.25
2023-01-19T01:46:11.847Z,99738.13
2023-01-19T01:48:39.207Z,99741.47
2023-01-19T01:51:26.740Z,99740.84
2023-01-19T01:54:11.861Z,99735.75
2023-01-19T01:56:40.399Z,99743.41
2023-01-19T01:59:09.402Z,99748.56
2023-01-19T02:01:54.698Z,99745.28
2023-01-19T02:04:22.129Z,99737.63
2023-01-19T02:07:07.344Z,99740.19
2023-01-19T02:09:55.486Z,99745.38
2023-01-19T02:12:41.339Z,99734.41
2023-01-19T02:15:15.188Z,99737.72
2023-01-19T02:17:42.047Z,99740.34
2023-01-19T02:20:10.691Z,99734.50
2023-01-19T02:22:42.269Z,99735.53
2023-01-19T02:25:08.963Z,99737.19
2023-01-19T02:27:37.025Z,99743.13
2023-01-19T02:30:03.986Z,99738.09
2023-01-19T02:32:30.449Z,99735.59
2023-01-19T02:34:57.252Z,99735.66
2023-01-19T02:37:24.489Z,99731.41
2023-01-19T02:39:56.370Z,99741.63
2023-01-19T02:42:32.138Z,99727.88
2023-01-19T02:44:59.773Z,99732.91
2023-01-19T02:47:26.350Z,99726.22
2023-01-19T02:50:01.055Z,99726.22
2023-01-19T02:52:28.076Z,99728.66
2023-01-19T02:55:04.661Z,99731.00
2023-01-19T02:57:44.234Z,99733.53
2023-01-19T03:00:10.669Z,99725.03
2023-01-19T03:02:51.046Z,99731.78
2023-01-19T03:05:34.150Z,99719.88
2023-01-19T03:08:11.319Z,99727.38
2023-01-19T03:10:56.888Z,99720.66
2023-01-19T03:13:41.890Z,99731.69
2023-01-19T03:16:11.995Z,99737.72
2023-01-19T03:18:42.773Z,99731.69
2023-01-19T03:21:09.861Z,99726.59
2023-01-19T03:23:37.568Z,99730.09
2023-01-19T03:26:05.954Z,99729.22
2023-01-19T03:28:33.989Z,99739.59
2023-01-19T03:31:06.927Z,99745.63
2023-01-19T03:33:37.348Z,99749.91
2023-01-19T03:36:08.425Z,99746.56
2023-01-19T03:38:37.174Z,99750.88
2023-01-19T03:41:06.943Z,99739.09
2023-01-19T03:43:35.223Z,99741.63
2023-01-19T03:46:02.899Z,99739.84
2023-01-19T03:48:29.433Z,99744.22
2023-01-19T03:50:55.948Z,99743.41
2023-01-19T03:53:25.294Z,99737.34
2023-01-19T03:55:54.216Z,99745.03
2023-01-19T03:58:22.178Z,99733.88
2023-01-19T04:00:48.724Z,99740.63
2023-01-19T04:03:16.209Z,99743.34
2023-01-19T04:05:43.097Z,99743.28
2023-01-19T04:08:10.006Z,99741.63
2023-01-19T04:10:36.841Z,99749.34
2023-01-19T04:13:04.092Z,99745.91
2023-01-19T04:15:31.273Z,99749.31
2023-01-19T04:17:58.304Z,99745.97
2023-01-19T04:20:27.054Z,99750.28
2023-01-19T04:22:54.229Z,99746.91
2023-01-19T04:25:20.877Z,99744.38
2023-01-19T04:27:47.323Z,99750.34
2023-01-19T04:30:13.904Z,99747.81
2023-01-19T04:32:40.428Z,99751.22
2023-01-19T04:35:07.074Z,99750.34
2023-01-19T04:37:33.572Z,99754.66
2023-01-19T04:40:00.008Z,99751.28
2023-01-19T04:42:27.641Z,99746.22
2023-01-19T04:44:54.113Z,99753.88
2023-01-19T04:47:20.604Z,99755.63
2023-01-19T04:49:47.064Z,99753.94
2023-01-19T04:52:13.528Z,99753.97
2023-01-19T04:54:39.999Z,99751.34
2023-01-19T04:57:06.462Z,99755.50
2023-01-19T04:59:32.947Z,99753.72
2023-01-19T05:01:59.399Z,99751.06
2023-01-19T05:04:26.070Z,99760.31
2023-01-19T05:06:54.238Z,99754.31
2023-01-19T05:09:20.699Z,99756.09
2023-01-19T05:11:47.148Z,99761.03
2023-01-19T05:14:13.595Z,99761.00
2023-01-19T05:16:40.048Z,99759.31
2023-01-19T05:19:06.569Z,99765.19
2023-01-19T05:21:33.056Z,99764.25
2023-01-19T05:23:59.472Z,99754.06
2023-01-19T05:26:25.964Z,99756.56
2023-01-19T05:28:52.397Z,99758.09
2023-01-19T05:31:19.787Z,99758.22
2023-01-19T05:33:46.440Z,99762.44
2023-01-19T05:36:12.925Z,99765.66
2023-01-19T05:38:39.364Z,99772.59
2023-01-19T05:41:05.882Z,99772.56
2023-01-19T05:43:32.440Z,99776.75
2023-01-19T05:45:58.981Z,99776.06
2023-01-19T05:48:25.491Z,99785.41
2023-01-19T05:50:52.100Z,99782.09
2023-01-19T05:53:18.565Z,99782.13
2023-01-19T05:55:45.077Z,99792.34
2023-01-19T05:58:11.553Z,99791.38
2023-01-19T06:00:38.030Z,99793.72
2023-01-19T06:03:06.548Z,99789.59
2023-01-19T06:05:33.152Z,99797.94
2023-01-19T06:07:59.805Z,99803.84
2023-01-19T06:10:26.288Z,99817.59
2023-01-19T06:12:53.727Z,99819.34
2023-01-19T06:15:20.195Z,99803.19
2023-01-19T06:17:46.661Z,99819.41
2023-01-19T06:20:14.207Z,99810.97
2023-01-19T06:22:40.747Z,99806.81
2023-01-19T06:25:07.326Z,99814.53
2023-01-19T06:27:34.284Z,99813.78
2023-01-19T06:30:00.993Z,99812.19
2023-01-19T06:32:27.559Z,99814.72
2023-01-19T06:34:54.263Z,99813.94
2023-01-19T06:37:20.979Z,99813.16
2023-01-19T06:39:47.416Z,99818.41
2023-01-19T06:42:14.446Z,99820.91
2023-01-19T06:44:47.300Z,99815.03
2023-01-19T06:47:15.479Z,99815.84
2023-01-19T06:49:42.730Z,99816.75
2023-01-19T06:52:16.080Z,99817.53
2023-01-19T06:54:43.687Z,99814.13
2023-01-19T06:57:12.249Z,99806.47
2023-01-19T06:59:39.039Z,99815.75
2023-01-19T07:02:27.546Z,99817.50
2023-01-19T07:04:52.564Z,99825.09
2023-01-19T07:07:18.999Z,99830.22
2023-01-19T07:09:45.504Z,99832.00
2023-01-19T07:12:11.977Z,99826.06
2023-01-19T07:14:38.517Z,99837.13
2023-01-19T07:17:04.985Z,99836.97
2023-01-19T07:19:31.582Z,99834.53
2023-01-19T07:21:58.071Z,99835.44
2023-01-19T07:24:24.547Z,99846.47
2023-01-19T07:26:51.035Z,99839.72
2023-01-19T07:29:17.613Z,99839.69
2023-01-19T07:31:44.204Z,99838.91
2023-01-19T07:34:12.492Z,99849.94
2023-01-19T07:36:39.117Z,99850.72
2023-01-19T07:39:05.554Z,99857.53
2023-01-19T07:41:32.552Z,99854.81
2023-01-19T07:43:59.095Z,99858.13
2023-01-19T07:46:25.633Z,99864.69
2023-01-19T07:48:52.207Z,99871.34
2023-01-19T07:51:19.002Z,99871.22
2023-01-19T07:53:45.813Z,99871.28
2023-01-19T07:56:12.595Z,99874.53
2023-01-19T07:58:39.204Z,99863.31
2023-01-19T08:01:06.700Z,99876.81
2023-01-19T08:03:33.583Z,99877.41
2023-01-19T08:06:00.444Z,99867.97
2023-01-19T08:08:29.378Z,99870.19
2023-01-19T08:10:55.826Z,99875.97
2023-01-19T08:13:22.328Z,99878.44
2023-01-19T08:15:50.338Z,99877.34
2023-01-19T08:18:17.070Z,99869.53
2023-01-19T08:20:43.724Z,99879.59
2023-01-19T08:23:10.303Z,99899.31
2023-01-19T08:25:44.562Z,99877.09
2023-01-19T08:28:11.813Z,99897.84
2023-01-19T08:30:38.752Z,99894.00
2023-01-19T08:33:08.029Z,99902.41
2023-01-19T08:35:36.943Z,99897.91
2023-01-19T08:38:04.023Z,99893.69
2023-01-19T08:40:33.836Z,99901.00
2023-01-19T08:43:03.550Z,99892.81
2023-01-19T08:45:31.175Z,99905.41
2023-01-19T08:48:00.973Z,99903.78
2023-01-19T08:50:31.880Z,99918.53
2023-01-19T08:53:02.736Z,99917.88
2023-01-19T08:55:29.781Z,99915.19
2023-01-19T08:58:00.558Z,99913.25
2023-01-19T09:00:27.693Z,99916.16
2023-01-19T09:02:55.053Z,99920.56
2023-01-19T09:05:21.591Z,99927.88
2023-01-19T09:07:48.366Z,99919.72
2023-01-19T09:10:15.426Z,99923.84
2023-01-19T09:12:42.081Z,99913.63
2023-01-19T09:15:10.844Z,99920.50
2023-01-19T09:17:37.507Z,99928.56
2023-01-19T09:20:05.997Z,99938.09
2023-01-19T09:22:33.411Z,99931.19
2023-01-19T09:25:00.380Z,99937.00
2023-01-19T09:27:27.124Z,99930.31
2023-01-19T09:29:54.119Z,99933.97
2023-01-19T09:32:21.120Z,99936.69
2023-01-19T09:34:47.665Z,99930.56
2023-01-19T09:37:16.175Z,99930.56
2023-01-19T09:39:42.854Z,99925.47
2023-01-19T09:42:12.420Z,99934.13
2023-01-19T09:44:40.691Z,99935.56
2023-01-19T09:47:16.999Z,99937.94
2023-01-19T09:49:50.169Z,99930.63
2023-01-19T09:52:18.416Z,99928.72
2023-01-19T09:54:53.023Z,99930.22
2023-01-19T09:57:20.677Z,99926.28
2023-01-19T09:59:49.449Z,99926.91
2023-01-19T10:02:33.104Z,99928.13
2023-01-19T10:05:26.059Z,99922.31
2023-01-19T10:07:53.454Z,99921.88
2023-01-19T10:10:29.030Z,99925.41
2023-01-19T10:13:01.878Z,99921.56
2023-01-19T10:15:37.660Z,99915.59
2023-01-19T10:18:22.878Z,99917.75
2023-01-19T10:20:52.347Z,99923.22
2023-01-19T10:23:21.875Z,99914.97
2023-01-19T10:25:48.540Z,99932.34
2023-01-19T10:28:17.462Z,99920.00
2023-01-19T10:30:44.986Z,99919.19
2023-01-19T10:33:13.451Z,99916.91
2023-01-19T10:35:39.934Z,99917.97
2023-01-19T10:38:06.612Z,99907.81
2023-01-19T10:40:39.302Z,99906.69
2023-01-19T10:43:26.046Z,99914.69
2023-01-19T10:45:52.653Z,99919.97
2023-01-19T10:48:19.191Z,99912.41
2023-01-19T10:50:45.689Z,99901.94
2023-01-19T10:53:21.014Z,99901.75
2023-01-19T10:55:47.662Z,99909.09
2023-01-19T10:58:27.881Z,99901.94
2023-01-19T11:00:54.558Z,99902.28
2023-01-19T11:03:24.343Z,99898.13
2023-01-19T11:05:51.239Z,99895.03
2023-01-19T11:08:28.649Z,99888.75
2023-01-19T11:10:59.894Z,99888.88
2023-01-19T11:13:26.632Z,99886.25
2023-01-19T11:16:04.741Z,99884.25
2023-01-19T11:18:35.834Z,99879.03
2023-01-19T11:21:03.759Z,99874.34
2023-01-19T11:23:35.056Z,99878.06
2023-01-19T11:26:02.732Z,99878.69
2023-01-19T11:28:43.536Z,99872.91
2023-01-19T11:31:11.539Z,99874.91
2023-01-19T11:33:42.693Z,99873.53
2023-01-19T11:36:16.721Z,99870.19
2023-01-19T11:38:44.300Z,99874.75
2023-01-19T11:41:17.020Z,99867.69
2023-01-19T11:43:49.248Z,99865.69
2023-01-19T11:46:16.480Z,99865.06
2023-01-19T11:48:46.706Z,99861.91
2023-01-19T11:51:36.747Z,99857.06
2023-01-19T11:54:07.971Z,99856.69
2023-01-19T11:56:35.163Z,99858.59
2023-01-19T11:59:02.500Z,99851.63
2023-01-19T12:01:34.281Z,99855.63
2023-01-19T12:04:08.795Z,99861.16
2023-01-19T12:06:44.544Z,99857.13
2023-01-19T12:09:17.529Z,99856.59
2023-01-19T12:11:46.650Z,99861.28
2023-01-19T12:14:33.463Z,99851.72
2023-01-19T12:17:02.582Z,99867.59
2023-01-19T12:19:41.916Z,99867.97
2023-01-19T12:22:13.307Z,99855.50
2023-01-19T12:25:02.548Z,99862.19
2023-01-19T12:27:55.423Z,99868.09
2023-01-19T12:30:26.695Z,99869.72
2023-01-19T12:33:13.089Z,99870.16
2023-01-19T12:35:59.607Z,99869.94
2023-01-19T12:39:01.689Z,99878.38
2023-01-19T12:41:29.921Z,99870.69
2023-01-19T12:44:11.732Z,99875.28
2023-01-19T12:46:41.334Z,99865.44
2023-01-19T12:49:18.935Z,99882.28
2023-01-19T12:51:46.036Z,99880.22
2023-01-19T12:54:32.736Z,99872.09
2023-01-19T12:57:02.398Z,99880.59
2023-01-19T12:59:36.414Z,99888.19
2023-01-19T13:02:18.360Z,99885.09
2023-01-19T13:05:03.843Z,99884.34
2023-01-19T13:07:30.422Z,99891.03
2023-01-19T13:09:57.191Z,99892.25
2023-01-19T13:12:25.348Z,99887.53
2023-01-19T13:15:11.729Z,99883.50
2023-01-19T13:17:51.385Z,99889.59
2023-01-19T13:20:27.260Z,99901.31
2023-01-19T13:23:05.901Z,99894.88
2023-01-19T13:25:35.681Z,99896.66
2023-01-19T13:28:02.710Z,99898.81
2023-01-19T13:30:30.224Z,99893.06
2023-01-19T13:33:00.612Z,99896.16
2023-01-19T13:35:27.211Z,99895.88
2023-01-19T13:37:53.919Z,99889.88
2023-01-19T13:40:23.195Z,99900.84
2023-01-19T13:42:51.633Z,99915.34
2023-01-19T13:45:30.505Z,99907.16
2023-01-19T13:47:58.566Z,99918.75
2023-01-19T13:50:26.910Z,99919.56
2023-01-19T13:52:55.625Z,99915.66
2023-01-19T13:55:23.907Z,99916.78
2023-01-19T13:57:51.160Z,99916.66
2023-01-19T14:00:25.201Z,99917.06
2023-01-19T14:02:58.814Z,99922.09
2023-01-19T14:05:25.579Z,99922.47
2023-01-19T14:08:13.718Z,99918.84
2023-01-19T14:10:43.385Z,99923.44
2023-01-19T14:13:15.100Z,99917.22
2023-01-19T14:15:41.900Z,99920.41
2023-01-19T14:18:14.598Z,99918.50
2023-01-19T14:20:41.275Z,99930.09
2023-01-19T14:23:27.901Z,99930.78
2023-01-19T14:25:54.387Z,99922.69
2023-01-19T14:28:38.572Z,99928.66
2023-01-19T14:31:19.179Z,99931.19
2023-01-19T14:33:47.128Z,99937.16
2023-01-19T14:36:14.414Z,99942.94
2023-01-19T14:38:45.945Z,99949.84
2023-01-19T14:41:13.309Z,99944.59
2023-01-19T14:43:44.745Z,99948.00
2023-01-19T14:46:20.829Z,99946.13
2023-01-19T14:48:51.548Z,99944.28
2023-01-19T14:51:23.565Z,99939.06
2023-01-19T14:53:51.585Z,99953.72
2023-01-19T14:56:28.533Z,99945.25
2023-01-19T14:58:55.536Z,99948.75
2023-01-19T15:01:22.217Z,99945.31
2023-01-19T15:03:48.767Z,99948.97
2023-01-19T15:06:20.857Z,99945.41
2023-01-19T15:08:48.935Z,99948.28
2023-01-19T15:11:21.511Z,99946.38
2023-01-19T15:13:48.381Z,99954.44
2023-01-19T15:16:15.082Z,99956.31
2023-01-19T15:18:41.741Z,99948.81
2023-01-19T15:21:20.138Z,99949.63
2023-01-19T15:23:47.584Z,99955.09
2023-01-19T15:26:16.679Z,99952.09
2023-01-19T15:28:43.297Z,99956.94
2023-01-19T15:31:13.683Z,99956.84
2023-01-19T15:33:40.183Z,99958.78
2023-01-19T15:36:06.825Z,99963.09
2023-01-19T15:38:33.278Z,99961.75
2023-01-19T15:40:59.753Z,99960.19
2023-01-19T15:43:26.255Z,99960.97
2023-01-19T15:45:59.362Z,99967.38
2023-01-19T15:48:25.920Z,99963.50
2023-01-19T15:50:52.416Z,99960.97
2023-01-19T15:53:19.800Z,99960.69
2023-01-19T15:55:49.912Z,99961.69
2023-01-19T15:58:16.677Z,99960.94
2023-01-19T16:00:43.244Z,99960.28
2023-01-19T16:03:10.407Z,99956.13
2023-01-19T16:05:42.793Z,99958.22
2023-01-19T16:08:10.570Z,99956.06
2023-01-19T16:10:37.133Z,99960.47
2023-01-19T16:13:04.269Z,99956.13
2023-01-19T16:15:30.722Z,99965.53
2023-01-19T16:17:57.192Z,99964.16
2023-01-19T16:20:23.692Z,99968.25
2023-01-19T16:22:50.185Z,99968.69
2023-01-19T16:25:16.689Z,99967.91
2023-01-19T16:27:43.231Z,99965.50
2023-01-19T16:30:11.929Z,99971.56
2023-01-19T16:32:38.795Z,99970.81
2023-01-19T16:35:05.469Z,99966.50
2023-01-19T16:37:32.011Z,99977.69
2023-01-19T16:39:58.559Z,99975.00
2023-01-19T16:42:25.077Z,99978.31
2023-01-19T16:44:51.550Z,99978.50
2023-01-19T16:47:18.179Z,99968.81
2023-01-19T16:49:44.742Z,99980.13
2023-01-19T16:52:11.200Z,99979.91
2023-01-19T16:54:39.408Z,99977.63
2023-01-19T16:57:05.946Z,99982.97
2023-01-19T16:59:32.569Z,99980.75
2023-01-19T17:01:59.130Z,99982.81
2023-01-19T17:04:27.163Z,99990.16
2023-01-19T17:06:54.491Z,99987.59
2023-01-19T17:09:21.273Z,99987.78
2023-01-19T17:11:47.854Z,99984.34
2023-01-19T17:14:15.559Z,99989.59
2023-01-19T17:16:43.061Z,99991.47
2023-01-19T17:19:12.729Z,99985.22
2023-01-19T17:21:39.197Z,99985.94
2023-01-19T17:24:05.970Z,99988.66
2023-01-19T17:26:32.502Z,99990.59
2023-01-19T17:29:00.052Z,99990.56
2023-01-19T17:31:26.951Z,99987.25
2023-01-19T17:33:53.534Z,99996.63
2023-01-19T17:36:22.588Z,99996.00
2023-01-19T17:38:49.900Z,99993.66
2023-01-19T17:41:17.730Z,99994.34
2023-01-19T17:43:44.671Z,99994.09
2023-01-19T17:46:11.458Z,99994.28
2023-01-19T17:48:38.234Z,100003.47
2023-01-19T17:51:05.925Z,100004.41
2023-01-19T17:53:32.946Z,100004.34
2023-01-19T17:56:03.582Z,100010.28
2023-01-19T17:58:31.235Z,100013.28
2023-01-19T18:00:58.023Z,100008.41
2023-01-19T18:03:24.566Z,100015.06
2023-01-19T18:05:54.563Z,100017.53
2023-01-19T18:08:21.144Z,100016.47
2023-01-19T18:10:54.544Z,100016.53
2023-01-19T18:13:21.587Z,100022.47
2023-01-19T18:15:48.205Z,100022.41
2023-01-19T18:18:15.195Z,100021.69
2023-01-19T18:20:44.523Z,100022.41
2023-01-19T18:23:11.485Z,100034.34
2023-01-19T18:25:39.603Z,100041.38
2023-01-19T18:28:06.623Z,100036.50
2023-01-19T18:30:36.712Z,100033.59
2023-01-19T18:33:03.715Z,100043.03
2023-01-19T18:35:30.200Z,100049.69
2023-01-19T18:37:58.530Z,100047.09
2023-01-19T18:40:25.386Z,100048.91
2023-01-19T18:42:51.883Z,100049.69
2023-01-19T18:45:18.338Z,100057.22
2023-01-19T18:47:44.791Z,100054.78
2023-01-19T18:50:14.099Z,100057.47
2023-01-19T18:52:40.827Z,100064.41
2023-01-19T18:55:07.444Z,100061.78
2023-01-19T18:57:34.902Z,100062.63
2023-01-19T19:00:01.451Z,100063.44
2023-01-19T19:02:27.985Z,100067.97
2023-01-19T19:04:54.459Z,100074.97
2023-01-19T19:07:20.927Z,100063.78
2023-01-19T19:09:47.402Z,100072.09
2023-01-19T19:12:13.866Z,100069.47
2023-01-19T19:14:40.362Z,100080.00
2023-01-19T19:17:06.822Z,100081.50
2023-01-19T19:19:33.331Z,100086.03
2023-01-19T19:21:59.793Z,100082.78
2023-01-19T19:24:26.248Z,100091.16
2023-01-19T19:26:52.690Z,100088.78
2023-01-19T19:29:19.157Z,100088.63
2023-01-19T19:31:46.462Z,100091.34
2023-01-19T19:34:13.144Z,100100.94
2023-01-19T19:36:40.142Z,100096.75
2023-01-19T19:39:06.676Z,100104.47
2023-01-19T19:41:33.129Z,100105.25
2023-01-19T19:43:59.604Z,100101.94
2023-01-19T19:46:26.929Z,100104.66
2023-01-19T19:48:53.945Z,100107.53
2023-01-19T19:51:22.678Z,100119.88
2023-01-19T19:53:51.550Z,100122.44
2023-01-19T19:56:21.292Z,100121.59
2023-01-19T19:58:48.241Z,100125.69
2023-01-19T20:01:19.480Z,100126.41
2023-01-19T20:03:46.194Z,100138.41
2023-01-19T20:06:21.289Z,100134.41
2023-01-19T20:08:48.494Z,100130.78
2023-01-19T20:11:16.302Z,100139.13
2023-01-19T20:13:43.664Z,100135.63
2023-01-19T20:16:13.950Z,100140.09
2023-01-19T20:18:42.365Z,100144.28
2023-01-19T20:21:16.674Z,100142.69
2023-01-19T20:23:43.714Z,100143.38
2023-01-19T20:26:10.952Z,100139.97
2023-01-19T20:28:37.903Z,100149.50
2023-01-19T20:31:16.027Z,100144.00
2023-01-19T20:33:43.818Z,100149.34
2023-01-19T20:36:10.606Z,100153.81
2023-01-19T20:38:37.494Z,100162.72
2023-01-19T20:41:04.443Z,100163.13
2023-01-19T20:43:31.053Z,100166.06
2023-01-19T20:45:57.664Z,100173.47
2023-01-19T20:48:24.134Z,100171.31
2023-01-19T20:50:50.597Z,100174.34
2023-01-19T20:53:17.072Z,100180.41
2023-01-19T20:55:43.550Z,100175.53
2023-01-19T21:00:42.802Z,100184.25
2023-01-19T21:03:09.377Z,100184.41
2023-01-19T21:05:35.879Z,100186.22
2023-01-19T21:08:02.410Z,100197.34
2023-01-19T21:10:29.423Z,100198.13
2023-01-19T21:12:55.945Z,100201.00
2023-01-19T21:15:22.452Z,100200.94
2023-01-19T21:17:49.008Z,100200.94
2023-01-19T21:20:17.002Z,100207.25
2023-01-19T21:22:43.482Z,100213.88
2023-01-19T21:25:09.996Z,100207.63
2023-01-19T21:27:36.454Z,100213.00
2023-01-19T21:30:03.622Z,100213.78
2023-01-19T21:32:30.133Z,100211.84
2023-01-19T21:34:56.615Z,100214.13
2023-01-19T21:37:23.079Z,100224.28
2023-01-19T21:39:49.515Z,100231.34
2023-01-19T21:42:16.021Z,100228.03
2023-01-19T21:44:42.482Z,100233.94
2023-01-19T21:47:09.037Z,100237.59
2023-01-19T21:49:35.674Z,100239.28
2023-01-19T21:52:02.097Z,100247.31
2023-01-19T21:54:28.633Z,100245.44
2023-01-19T21:56:55.087Z,100258.06
2023-01-19T21:59:21.553Z,100240.84
2023-01-19T22:01:48.084Z,100260.59
2023-01-19T22:04:14.561Z,100253.72
2023-01-19T22:06:41.104Z,100255.56
2023-01-19T22:09:07.972Z,100269.41
2023-01-19T22:11:34.441Z,100273.41
2023-01-19T22:14:01.338Z,100275.03
2023-01-19T22:16:29.059Z,100276.47
2023-01-19T22:18:59.422Z,100279.81
2023-01-19T22:21:30.139Z,100285.91
2023-01-19T22:23:59.067Z,100291.41
2023-01-19T22:26:26.636Z,100288.97
2023-01-19T22:28:54.375Z,100290.81
2023-01-19T22:31:20.942Z,100291.38
2023-01-19T22:33:49.104Z,100293.22
2023-01-19T22:36:28.541Z,100297.31
2023-01-19T22:38:55.979Z,100299.47
2023-01-19T22:41:29.678Z,100298.47
2023-01-19T22:43:57.615Z,100310.38
2023-01-19T22:46:25.422Z,100303.44
2023-01-19T22:48:52.728Z,100310.03
2023-01-19T22:51:19.796Z,100312.22
2023-01-19T22:53:46.373Z,100309.56
2023-01-19T22:56:20.138Z,100316.19
2023-01-19T22:58:47.138Z,100317.72
2023-01-19T23:01:24.387Z,100323.88
2023-01-19T23:03:51.157Z,100315.44
2023-01-19T23:06:21.815Z,100316.28
2023-01-19T23:08:48.734Z,100317.34
2023-01-19T23:11:24.813Z,100310.28
2023-01-19T23:13:51.476Z,100316.28
2023-01-19T23:16:34.335Z,100331.56
2023-01-19T23:19:00.939Z,100326.25
2023-01-19T23:21:28.402Z,100333.94
2023-01-19T23:23:59.724Z,100333.03
2023-01-19T23:26:26.510Z,100328.72
2023-01-19T23:28:54.502Z,100338.25
2023-01-19T23:31:22.560Z,100344.09
2023-01-19T23:33:49.738Z,100335.66
2023-01-19T23:36:16.975Z,100340.72
2023-01-19T23:38:47.850Z,100335.72
2023-01-19T23:41:14.601Z,100342.94
2023-01-19T23:43:41.317Z,100346.41
2023-01-19T23:46:09.386Z,100341.28
2023-01-19T23:48:36.250Z,100331.47
2023-01-19T23:51:06.859Z,100339.53
2023-01-19T23:53:33.382Z,100343.94
2023-01-19T23:55:59.881Z,100343.69
2023-01-19T23:58:26.310Z,100344.38
